AQQ10 IFIS: Internet Flight Information System
logo dgac
Viernes 01 de Julio del 2022
Buscar por aerodromo o helipuerto
Ingrese nombre de aeródromo, localidad o designador OACI:
METAR del 01-07-2022 a las 13:00 UTC
Para mayor información visite www.meteochile.cl
METAR SCCH 011300Z 03005KT 7000 SCT010 BKN070 08/07 Q1012
Viento: dirección 030 grados, velocidad 5 nudos
Visibilidad: 7000 metros
Nubes: Nubosidad parcial a 1000 pies sobre el nivel del aeródromo
Nubes: Nublado a 7000 pies sobre el nivel del aeródromo
Temperatura: 8 °C
Rocío: 7 °C
Humedad_relativa: 93%
Presión: 1012 hPa
METAR del 01-07-2022 a las 12:00 UTC
Para mayor información visite www.meteochile.cl
METAR SCCH 011200Z AUTO 34009KT 9999 FEW025 09/07 Q1011
Viento: dirección 340 grados, velocidad 9 nudos
Visibilidad: 10 km o más
Nubes: Escasa nubosidad a 2500 pies sobre el nivel del aeródromo
Temperatura: 9 °C
Rocío: 7 °C
Humedad_relativa: 87%
Presión: 1011 hPa
METAR del 01-07-2022 a las 11:00 UTC
Para mayor información visite www.meteochile.cl
METAR SCCH 011100Z AUTO 33008KT 290V350 9999 FEW022 SCT038 09/07 Q1010
Viento: dirección 330 grados, velocidad 8 nudos
Viento con dirección variable entre 290 y 350 grados
Visibilidad: 10 km o más
Nubes: Escasa nubosidad a 2200 pies sobre el nivel del aeródromo
Nubes: Nubosidad parcial a 3800 pies sobre el nivel del aeródromo
Temperatura: 9 °C
Rocío: 7 °C
Humedad_relativa: 87%
Presión: 1010 hPa
METAR del 01-07-2022 a las 10:00 UTC
Para mayor información visite www.meteochile.cl
METAR SCCH 011000Z AUTO 32009KT 9999 SCT024 BKN045 09/08 Q1009
Viento: dirección 320 grados, velocidad 9 nudos
Visibilidad: 10 km o más
Nubes: Nubosidad parcial a 2400 pies sobre el nivel del aeródromo
Nubes: Nublado a 4500 pies sobre el nivel del aeródromo
Temperatura: 9 °C
Rocío: 8 °C
Humedad_relativa: 93%
Presión: 1009 hPa
SPECI del 01-07-2022 a las 09:21 UTC
Para mayor información visite www.meteochile.cl
SPECI SCCH 010921Z AUTO VRB03KT //// R/////// -RA BKN019 09/08 Q1009 RESHRA
Viento: dirección variable, velocidad 3 nudos
Débil Lluvia
Nubes: Nublado a 1900 pies sobre el nivel del aeródromo
Temperatura: 9 °C
Rocío: 8 °C
Humedad_relativa: 93%
Presión: 1009 hPa
Se observó recientemente ChubascosLluvia
METAR del 01-07-2022 a las 09:00 UTC
Para mayor información visite www.meteochile.cl
METAR SCCH 010900Z AUTO 32007KT 9999 RA BKN027 10/08 Q1009
Viento: dirección 320 grados, velocidad 7 nudos
Visibilidad: 10 km o más
Lluvia
Nubes: Nublado a 2700 pies sobre el nivel del aeródromo
Temperatura: 10 °C
Rocío: 8 °C
Humedad_relativa: 87%
Presión: 1009 hPa
SPECI del 01-07-2022 a las 08:47 UTC
Para mayor información visite www.meteochile.cl
SPECI SCCH 010847Z AUTO 33010KT //// R/////// RA FEW024 BKN029 10/08 Q1008
Viento: dirección 330 grados, velocidad 10 nudos
Lluvia
Nubes: Escasa nubosidad a 2400 pies sobre el nivel del aeródromo
Nubes: Nublado a 2900 pies sobre el nivel del aeródromo
Temperatura: 10 °C
Rocío: 8 °C
Humedad_relativa: 87%
Presión: 1008 hPa
METAR del 01-07-2022 a las 08:00 UTC
Para mayor información visite www.meteochile.cl
METAR SCCH 010800Z AUTO 35008KT 9999 FEW026 BKN043 10/08 Q1008
Viento: dirección 350 grados, velocidad 8 nudos
Visibilidad: 10 km o más
Nubes: Escasa nubosidad a 2600 pies sobre el nivel del aeródromo
Nubes: Nublado a 4300 pies sobre el nivel del aeródromo
Temperatura: 10 °C
Rocío: 8 °C
Humedad_relativa: 87%
Presión: 1008 hPa
SPECI del 01-07-2022 a las 07:56 UTC
Para mayor información visite www.meteochile.cl
SPECI SCCH 010756Z AUTO 35008KT //// R/////// FEW026 BKN043 10/08 Q1008
Viento: dirección 350 grados, velocidad 8 nudos
Nubes: Escasa nubosidad a 2600 pies sobre el nivel del aeródromo
Nubes: Nublado a 4300 pies sobre el nivel del aeródromo
Temperatura: 10 °C
Rocío: 8 °C
Humedad_relativa: 87%
Presión: 1008 hPa
METAR del 01-07-2022 a las 07:00 UTC
Para mayor información visite www.meteochile.cl
METAR SCCH 010700Z AUTO 02006KT 9999 FEW024 SCT034 08/08 Q1007
Viento: dirección 020 grados, velocidad 6 nudos
Visibilidad: 10 km o más
Nubes: Escasa nubosidad a 2400 pies sobre el nivel del aeródromo
Nubes: Nubosidad parcial a 3400 pies sobre el nivel del aeródromo
Temperatura: 8 °C
Rocío: 8 °C
Humedad_relativa: 100%
Presión: 1007 hPa